Dom Feliciano, Brazil
Current Conditions -  °F | °C
As of 6:00 AM on Friday 28 Nov 2014 (Local Time) from SBPK Reporting Station
Clear Clear  
Wind Chill: 55°   Ceiling: Unl
Heat Index: 55°   Visibility: 6mi
Dew Point: 55°   Wind: 2mph
Humidity: 100%   Direction: 270°W
Pressure: 30"   Gusts: NA
Location:  30.7°S, 52.11°W
Report Text: SBPK 280800Z 27002KT CAVOK 13/13 Q1016
Loading
Personal Weather Stations






























Interactive Weather Map New forecast layout! Learn more

10-Day Weather Forecast

Advertisements
Track Severe Weather on mobile